createdAt,value
2022-11-03T00:01:43.393Z,75.12
2022-11-03T00:04:12.529Z,75.70
2022-11-03T00:06:40.509Z,75.64
2022-11-03T00:09:09.713Z,75.17
2022-11-03T00:11:39.036Z,75.40
2022-11-03T00:14:06.203Z,75.06
2022-11-03T00:16:33.475Z,75.05
2022-11-03T00:19:00.044Z,75.63
2022-11-03T00:21:27.414Z,75.78
2022-11-03T00:23:53.969Z,76.06
2022-11-03T00:26:26.245Z,75.60
2022-11-03T00:28:57.985Z,76.30
2022-11-03T00:31:32.412Z,76.06
2022-11-03T00:34:00.890Z,76.47
2022-11-03T00:36:33.025Z,76.50
2022-11-03T00:38:59.643Z,76.27
2022-11-03T00:41:27.529Z,76.39
2022-11-03T00:43:54.808Z,77.03
2022-11-03T00:46:23.850Z,77.30
2022-11-03T00:48:51.465Z,76.88
2022-11-03T00:51:26.697Z,77.48
2022-11-03T00:54:01.753Z,76.99
2022-11-03T00:56:31.184Z,77.24
2022-11-03T00:58:59.541Z,77.48
2022-11-03T01:01:32.286Z,76.86
2022-11-03T01:04:18.067Z,77.07
2022-11-03T01:06:50.192Z,76.97
2022-11-03T01:09:21.244Z,77.30
2022-11-03T01:11:57.617Z,77.68
2022-11-03T01:14:30.723Z,77.18
2022-11-03T01:16:57.329Z,77.76
2022-11-03T01:19:25.234Z,77.37
2022-11-03T01:21:53.194Z,77.27
2022-11-03T01:24:19.962Z,77.26
2022-11-03T01:26:46.459Z,77.76
2022-11-03T01:29:12.949Z,77.52
2022-11-03T01:34:06.043Z,77.17
2022-11-03T01:36:32.540Z,76.97
2022-11-03T01:38:59.026Z,77.99
2022-11-03T01:41:28.224Z,77.41
2022-11-03T01:44:06.786Z,77.83
2022-11-03T01:46:37.668Z,77.79
2022-11-03T01:49:11.628Z,77.72
2022-11-03T01:51:41.616Z,77.11
2022-11-03T01:54:15.301Z,77.60
2022-11-03T01:56:47.874Z,77.43
2022-11-03T01:59:22.499Z,77.04
2022-11-03T02:01:49.546Z,77.27
2022-11-03T02:04:22.882Z,77.14
2022-11-03T02:07:11.314Z,77.22
2022-11-03T02:09:37.808Z,77.55
2022-11-03T02:12:08.445Z,77.20
2022-11-03T02:14:58.225Z,77.13
2022-11-03T02:17:29.113Z,77.54
2022-11-03T02:20:06.607Z,77.52
2022-11-03T02:23:01.031Z,77.42
2022-11-03T02:25:47.282Z,77.79
2022-11-03T02:28:18.664Z,77.58
2022-11-03T02:31:15.164Z,77.22
2022-11-03T02:33:46.309Z,78.02
2022-11-03T02:36:26.663Z,77.00
2022-11-03T02:39:05.560Z,77.34
2022-11-03T02:41:36.900Z,77.24
2022-11-03T02:44:07.022Z,77.01
2022-11-03T02:46:36.354Z,77.67
2022-11-03T02:49:03.129Z,77.02
2022-11-03T02:51:29.673Z,77.48
2022-11-03T02:54:10.119Z,77.77
2022-11-03T02:57:02.189Z,77.70
2022-11-03T02:59:37.461Z,77.77
2022-11-03T03:02:11.568Z,77.19
2022-11-03T03:04:48.137Z,77.01
2022-11-03T03:07:24.181Z,77.55
2022-11-03T03:10:00.720Z,77.26
2022-11-03T03:12:28.502Z,77.62
2022-11-03T03:14:59.201Z,77.31
2022-11-03T03:17:35.932Z,77.10
2022-11-03T03:20:05.671Z,76.92
2022-11-03T03:22:43.659Z,77.45
2022-11-03T03:25:30.502Z,76.96
2022-11-03T03:28:26.230Z,77.31
2022-11-03T03:30:56.908Z,77.21
2022-11-03T03:36:03.849Z,77.43
2022-11-03T03:38:37.562Z,77.80
2022-11-03T03:41:10.822Z,77.63
2022-11-03T03:43:39.428Z,77.87
2022-11-03T03:46:11.376Z,77.97
2022-11-03T03:48:38.205Z,77.98
2022-11-03T03:51:07.094Z,78.27
2022-11-03T03:53:33.583Z,78.26
2022-11-03T03:56:00.254Z,78.28
2022-11-03T03:58:26.747Z,78.76
2022-11-03T04:00:53.306Z,78.36
2022-11-03T04:03:23.139Z,78.66
2022-11-03T04:05:50.400Z,79.15
2022-11-03T04:08:17.744Z,79.16
2022-11-03T04:11:03.713Z,79.13
2022-11-03T04:13:48.993Z,79.14
2022-11-03T04:16:34.515Z,79.24
2022-11-03T04:19:20.013Z,80.10
2022-11-03T04:22:04.817Z,79.58
2022-11-03T04:24:31.359Z,79.88
2022-11-03T04:27:09.467Z,79.67
2022-11-03T04:29:36.015Z,80.04
2022-11-03T04:32:08.737Z,80.66
2022-11-03T04:34:35.251Z,79.56
2022-11-03T04:37:01.731Z,80.14
2022-11-03T04:39:28.369Z,80.02
2022-11-03T04:41:54.835Z,80.08
2022-11-03T04:44:21.421Z,80.21
2022-11-03T04:46:48.007Z,80.29
2022-11-03T04:49:23.121Z,79.69
2022-11-03T04:51:50.204Z,79.92
2022-11-03T04:54:21.393Z,80.79
2022-11-03T04:56:47.965Z,79.90
2022-11-03T04:59:16.891Z,80.39
2022-11-03T05:01:45.911Z,80.46
2022-11-03T05:04:18.319Z,80.28
2022-11-03T05:06:52.648Z,80.19
2022-11-03T05:09:31.425Z,80.16
2022-11-03T05:11:59.151Z,80.11
2022-11-03T05:14:30.228Z,79.88
2022-11-03T05:16:58.657Z,80.13
2022-11-03T05:19:33.744Z,80.44
2022-11-03T05:22:02.884Z,80.23
2022-11-03T05:24:30.953Z,81.08
2022-11-03T05:26:59.810Z,80.75
2022-11-03T05:29:35.575Z,81.20
2022-11-03T05:32:02.185Z,80.31
2022-11-03T05:34:35.208Z,80.30
2022-11-03T05:37:16.096Z,80.47
2022-11-03T05:39:47.545Z,80.53
2022-11-03T05:42:22.920Z,81.06
2022-11-03T05:44:51.752Z,80.88
2022-11-03T05:47:25.912Z,81.13
2022-11-03T05:50:06.532Z,81.12
2022-11-03T05:52:33.066Z,80.90
2022-11-03T05:55:02.154Z,81.69
2022-11-03T05:57:32.880Z,81.72
2022-11-03T06:00:00.111Z,81.92
2022-11-03T06:02:40.100Z,81.52
2022-11-03T06:05:22.331Z,81.37
2022-11-03T06:07:52.440Z,81.59
2022-11-03T06:10:29.620Z,81.46
2022-11-03T06:13:11.219Z,81.41
2022-11-03T06:15:37.827Z,81.64
2022-11-03T06:18:21.459Z,81.71
2022-11-03T06:21:02.447Z,81.72
2022-11-03T06:23:29.159Z,81.47
2022-11-03T06:25:57.215Z,81.63
2022-11-03T06:28:32.105Z,81.81
2022-11-03T06:30:59.009Z,81.73
2022-11-03T06:33:33.761Z,81.55
2022-11-03T06:36:26.002Z,82.27
2022-11-03T06:39:01.352Z,81.62
2022-11-03T06:41:32.084Z,81.56
2022-11-03T06:44:03.136Z,82.15
2022-11-03T06:46:35.405Z,81.75
2022-11-03T06:49:04.215Z,82.19
2022-11-03T06:51:35.517Z,81.67
2022-11-03T06:54:09.624Z,81.50
2022-11-03T06:56:37.215Z,81.43
2022-11-03T06:59:03.734Z,81.60
2022-11-03T07:01:33.542Z,81.60
2022-11-03T07:04:06.317Z,81.27
2022-11-03T07:06:36.393Z,81.04
2022-11-03T07:09:07.167Z,80.93
2022-11-03T07:11:47.771Z,80.84
2022-11-03T07:14:19.444Z,80.56
2022-11-03T07:16:54.150Z,80.94
2022-11-03T07:19:27.650Z,80.77
2022-11-03T07:22:20.915Z,80.30
2022-11-03T07:24:51.593Z,80.40
2022-11-03T07:27:26.344Z,80.00
2022-11-03T07:29:58.241Z,79.70
2022-11-03T07:32:31.061Z,79.66
2022-11-03T07:35:31.268Z,79.51
2022-11-03T07:38:17.669Z,79.39
2022-11-03T07:40:44.318Z,79.24
2022-11-03T07:43:28.517Z,78.91
2022-11-03T07:46:00.520Z,78.82
2022-11-03T07:48:33.627Z,78.44
2022-11-03T07:51:15.288Z,78.43
2022-11-03T07:53:45.474Z,78.07
2022-11-03T07:56:25.108Z,77.97
2022-11-03T07:59:13.553Z,78.08
2022-11-03T08:01:59.230Z,77.59
2022-11-03T08:04:30.130Z,77.12
2022-11-03T08:06:56.984Z,76.92
2022-11-03T08:09:23.579Z,76.46
2022-11-03T08:11:51.053Z,76.54
2022-11-03T08:14:17.926Z,76.42
2022-11-03T08:16:44.544Z,75.99
2022-11-03T08:19:11.151Z,76.10
2022-11-03T08:21:37.674Z,75.62
2022-11-03T08:24:05.357Z,75.51
2022-11-03T08:26:31.826Z,75.54
2022-11-03T08:28:58.311Z,75.12
2022-11-03T08:31:24.814Z,75.41
2022-11-03T08:33:51.294Z,75.54
2022-11-03T08:36:17.885Z,75.33
2022-11-03T08:38:44.412Z,75.15
2022-11-03T08:41:10.921Z,75.24
2022-11-03T08:43:37.425Z,75.60
2022-11-03T08:46:13.877Z,75.11
2022-11-03T08:48:43.578Z,75.21
2022-11-03T08:51:13.194Z,75.33
2022-11-03T08:53:40.325Z,74.99
2022-11-03T08:56:10.496Z,74.83
2022-11-03T08:58:39.400Z,74.70
2022-11-03T09:01:05.937Z,75.14
2022-11-03T09:03:32.472Z,74.59
2022-11-03T09:05:59.006Z,74.60
2022-11-03T09:11:11.952Z,74.13
2022-11-03T09:13:38.449Z,73.58
2022-11-03T09:16:05.136Z,73.20
2022-11-03T09:18:33.896Z,72.70
2022-11-03T09:21:00.534Z,72.45
2022-11-03T09:23:27.095Z,72.63
2022-11-03T09:25:53.582Z,72.37
2022-11-03T09:28:20.060Z,72.18
2022-11-03T09:30:46.601Z,72.16
2022-11-03T09:33:13.113Z,71.51
2022-11-03T09:35:39.626Z,71.39
2022-11-03T09:38:07.810Z,71.20
2022-11-03T09:40:36.196Z,70.70
2022-11-03T09:43:03.451Z,70.30
2022-11-03T09:45:30.094Z,70.20
2022-11-03T09:47:56.855Z,70.02
2022-11-03T09:50:23.574Z,69.70
2022-11-03T09:52:55.170Z,69.97
2022-11-03T09:55:26.953Z,69.80
2022-11-03T09:58:09.252Z,69.69
2022-11-03T10:00:35.929Z,69.50
2022-11-03T10:03:05.328Z,69.14
2022-11-03T10:05:33.632Z,69.22
2022-11-03T10:08:07.092Z,69.61
2022-11-03T10:10:35.552Z,69.28
2022-11-03T10:13:02.365Z,69.18
2022-11-03T10:15:29.247Z,69.22
2022-11-03T10:17:56.917Z,68.31
2022-11-03T10:20:23.678Z,68.57
2022-11-03T10:22:55.060Z,68.28
2022-11-03T10:25:41.981Z,67.59
2022-11-03T10:28:23.621Z,67.88
2022-11-03T10:31:12.698Z,67.15
2022-11-03T10:33:52.968Z,67.53
2022-11-03T10:36:20.008Z,67.24
2022-11-03T10:38:48.048Z,67.13
2022-11-03T10:41:22.918Z,67.61
2022-11-03T10:44:11.039Z,67.62
2022-11-03T10:46:54.808Z,67.91
2022-11-03T10:49:21.756Z,67.64
2022-11-03T10:51:52.036Z,67.38
2022-11-03T10:54:22.844Z,67.13
2022-11-03T10:56:51.631Z,67.49
2022-11-03T10:59:21.695Z,67.51
2022-11-03T11:01:48.765Z,67.41
2022-11-03T11:04:20.511Z,67.67
2022-11-03T11:06:47.440Z,67.36
2022-11-03T11:09:26.568Z,66.81
2022-11-03T11:12:16.227Z,66.72
2022-11-03T11:15:00.552Z,66.40
2022-11-03T11:17:47.555Z,65.66
2022-11-03T11:20:21.241Z,65.03
2022-11-03T11:22:49.913Z,64.97
2022-11-03T11:25:18.660Z,64.31
2022-11-03T11:27:45.135Z,64.42
2022-11-03T11:30:20.809Z,63.70
2022-11-03T11:32:50.965Z,63.44
2022-11-03T11:35:37.428Z,62.91
2022-11-03T11:38:41.553Z,62.19
2022-11-03T11:41:08.104Z,62.60
2022-11-03T11:43:34.601Z,62.70
2022-11-03T11:46:22.869Z,62.47
2022-11-03T11:48:51.019Z,62.53
2022-11-03T11:51:17.568Z,62.48
2022-11-03T11:53:46.160Z,63.00
2022-11-03T11:56:18.920Z,62.53
2022-11-03T11:58:51.795Z,62.28
2022-11-03T12:01:30.864Z,62.18
2022-11-03T12:04:01.766Z,62.39
2022-11-03T12:06:37.357Z,62.00
2022-11-03T12:09:14.932Z,63.09
2022-11-03T12:11:57.268Z,63.28
2022-11-03T12:14:37.835Z,62.88
2022-11-03T12:17:16.314Z,63.24
2022-11-03T12:19:46.215Z,63.34
2022-11-03T12:22:39.690Z,63.29
2022-11-03T12:25:08.444Z,64.12
2022-11-03T12:27:34.944Z,62.87
2022-11-03T12:30:11.737Z,63.42
2022-11-03T12:32:38.240Z,63.23
2022-11-03T12:35:08.249Z,62.70
2022-11-03T12:37:35.006Z,62.95
2022-11-03T12:40:01.542Z,62.97
2022-11-03T12:42:28.118Z,63.48
2022-11-03T12:44:54.803Z,63.44
2022-11-03T12:47:21.389Z,63.26
2022-11-03T12:49:48.530Z,63.22
2022-11-03T12:52:15.372Z,63.08
2022-11-03T12:54:42.379Z,63.09
2022-11-03T12:57:09.718Z,63.48
2022-11-03T12:59:36.533Z,63.42
2022-11-03T13:02:03.430Z,63.17
2022-11-03T13:04:30.051Z,68.86
2022-11-03T13:06:56.701Z,63.93
2022-11-03T13:09:23.342Z,63.67
2022-11-03T13:12:08.176Z,61.59
2022-11-03T13:14:34.676Z,62.87
2022-11-03T13:17:03.624Z,62.81
2022-11-03T13:19:30.200Z,61.43
2022-11-03T13:21:56.753Z,62.79
2022-11-03T13:24:23.290Z,63.27
2022-11-03T13:26:49.800Z,63.07
2022-11-03T13:29:16.316Z,63.83
2022-11-03T13:31:42.814Z,63.71
2022-11-03T13:34:09.311Z,64.20
2022-11-03T13:36:35.828Z,65.16
2022-11-03T13:39:02.356Z,66.53
2022-11-03T13:41:28.861Z,66.98
2022-11-03T13:43:55.333Z,66.80
2022-11-03T13:46:21.926Z,66.75
2022-11-03T13:51:34.895Z,66.10
2022-11-03T13:59:35.346Z,65.68
2022-11-03T14:04:48.615Z,65.29
2022-11-03T14:07:15.115Z,65.46
2022-11-03T14:09:41.958Z,65.37
2022-11-03T14:12:26.798Z,65.51
2022-11-03T14:14:53.291Z,65.58
2022-11-03T14:17:19.786Z,65.18
2022-11-03T14:19:52.123Z,64.26
2022-11-03T14:22:20.958Z,64.60
2022-11-03T14:24:48.044Z,64.42
2022-11-03T14:27:15.807Z,65.39
2022-11-03T14:29:43.712Z,67.36
2022-11-03T14:32:11.307Z,68.17
2022-11-03T14:34:38.486Z,70.78
2022-11-03T14:37:05.798Z,73.20
2022-11-03T14:39:32.379Z,72.83
2022-11-03T14:42:04.820Z,73.71
2022-11-03T14:44:39.157Z,73.24
2022-11-03T14:47:08.938Z,74.49
2022-11-03T14:49:36.578Z,74.59
2022-11-03T14:52:06.037Z,75.12
2022-11-03T14:54:33.358Z,75.58
2022-11-03T14:56:59.921Z,74.69
2022-11-03T14:59:26.502Z,75.63
2022-11-03T15:01:54.003Z,76.38
2022-11-03T15:04:22.165Z,76.82
2022-11-03T15:06:49.508Z,76.73
2022-11-03T15:09:16.172Z,77.53
2022-11-03T15:11:44.270Z,77.48
2022-11-03T15:14:11.981Z,78.46
2022-11-03T15:16:39.727Z,78.85
2022-11-03T15:19:07.536Z,79.00
2022-11-03T15:21:34.517Z,79.08
2022-11-03T15:26:47.675Z,79.35
2022-11-03T15:29:14.176Z,79.83
2022-11-03T15:31:47.640Z,79.96
2022-11-03T15:34:15.323Z,79.59
2022-11-03T15:36:42.076Z,79.90
2022-11-03T15:39:08.573Z,80.24
2022-11-03T15:41:35.333Z,80.83
2022-11-03T15:44:02.222Z,80.49
2022-11-03T15:46:28.744Z,80.86
2022-11-03T15:48:57.362Z,81.00
2022-11-03T15:51:23.954Z,80.44
2022-11-03T15:53:56.735Z,80.90
2022-11-03T15:56:24.645Z,81.11
2022-11-03T15:58:51.142Z,80.75
2022-11-03T16:01:17.784Z,81.44
2022-11-03T16:03:44.436Z,81.32
2022-11-03T16:06:10.968Z,81.14
2022-11-03T16:08:38.152Z,81.31
2022-11-03T16:11:04.724Z,81.58
2022-11-03T16:13:31.227Z,81.64
2022-11-03T16:15:58.204Z,82.20
2022-11-03T16:18:24.985Z,82.20
2022-11-03T16:20:51.585Z,82.46
2022-11-03T16:23:18.206Z,82.42
2022-11-03T16:25:44.952Z,81.99
2022-11-03T16:28:11.619Z,82.35
2022-11-03T16:30:38.658Z,82.61
2022-11-03T16:33:05.558Z,82.67
2022-11-03T16:35:32.147Z,82.72
2022-11-03T16:37:58.848Z,83.12
2022-11-03T16:40:25.420Z,82.32
2022-11-03T16:42:51.993Z,82.68
2022-11-03T16:45:21.651Z,82.69
2022-11-03T16:47:50.384Z,82.69
2022-11-03T16:50:18.405Z,82.66
2022-11-03T16:52:47.199Z,82.50
2022-11-03T16:55:14.932Z,82.61
2022-11-03T16:57:42.676Z,82.70
2022-11-03T17:00:16.166Z,82.89
2022-11-03T17:02:44.085Z,83.04
2022-11-03T17:05:15.209Z,82.92
2022-11-03T17:07:41.940Z,83.02
2022-11-03T17:10:09.575Z,83.52
2022-11-03T17:12:36.320Z,83.68
2022-11-03T17:15:03.768Z,83.28
2022-11-03T17:17:30.757Z,83.51
2022-11-03T17:20:00.402Z,83.27
2022-11-03T17:22:27.208Z,83.56
2022-11-03T17:24:53.727Z,83.54
2022-11-03T17:27:27.319Z,83.52
2022-11-03T17:29:59.081Z,83.13
2022-11-03T17:32:34.021Z,83.49
2022-11-03T17:35:00.774Z,83.86
2022-11-03T17:37:28.233Z,84.02
2022-11-03T17:39:56.583Z,83.86
2022-11-03T17:42:25.405Z,83.73
2022-11-03T17:44:57.998Z,84.08
2022-11-03T17:47:24.778Z,83.59
2022-11-03T17:49:51.916Z,83.65
2022-11-03T17:52:28.997Z,83.33
2022-11-03T17:55:02.104Z,83.85
2022-11-03T17:57:29.888Z,83.62
2022-11-03T18:00:00.388Z,83.59
2022-11-03T18:02:31.641Z,83.43
2022-11-03T18:05:24.045Z,83.74
2022-11-03T18:07:51.098Z,83.75
2022-11-03T18:10:17.676Z,83.63
2022-11-03T18:13:07.148Z,83.83
2022-11-03T18:15:36.788Z,83.97
2022-11-03T18:18:14.269Z,83.72
2022-11-03T18:20:51.951Z,83.70
2022-11-03T18:23:23.593Z,83.63
2022-11-03T18:25:51.024Z,83.87
2022-11-03T18:28:17.919Z,84.15
2022-11-03T18:30:47.390Z,84.13
2022-11-03T18:33:27.161Z,84.04
2022-11-03T18:35:54.810Z,83.88
2022-11-03T18:38:24.075Z,84.43
2022-11-03T18:40:51.461Z,84.29
2022-11-03T18:43:24.093Z,84.10
2022-11-03T18:45:52.482Z,84.38
2022-11-03T18:48:19.507Z,84.22
2022-11-03T18:50:55.465Z,84.16
2022-11-03T18:53:24.697Z,84.02
2022-11-03T18:55:52.082Z,83.75
2022-11-03T18:58:25.058Z,84.03
2022-11-03T19:00:52.845Z,83.88
2022-11-03T19:03:23.042Z,83.74
2022-11-03T19:05:52.752Z,83.76
2022-11-03T19:08:25.785Z,84.02
2022-11-03T19:11:00.698Z,83.90
2022-11-03T19:13:40.943Z,84.03
2022-11-03T19:16:27.772Z,84.00
2022-11-03T19:18:54.287Z,83.80
2022-11-03T19:21:23.449Z,83.79
2022-11-03T19:23:54.183Z,84.15
2022-11-03T19:26:30.713Z,83.86
2022-11-03T19:29:03.275Z,83.55
2022-11-03T19:31:39.195Z,83.84
2022-11-03T19:34:12.729Z,83.52
2022-11-03T19:36:40.221Z,83.29
2022-11-03T19:39:25.734Z,83.55
2022-11-03T19:42:11.511Z,83.17
2022-11-03T19:44:38.102Z,83.08
2022-11-03T19:47:04.837Z,82.77
2022-11-03T19:49:31.447Z,83.25
2022-11-03T19:51:58.649Z,83.07
2022-11-03T19:54:25.942Z,83.31
2022-11-03T19:56:52.456Z,82.97
2022-11-03T19:59:18.986Z,83.43
2022-11-03T20:01:45.715Z,83.39
2022-11-03T20:04:12.369Z,83.35
2022-11-03T20:06:40.549Z,84.04
2022-11-03T20:09:12.331Z,84.08
2022-11-03T20:11:38.909Z,84.15
2022-11-03T20:14:05.766Z,84.38
2022-11-03T20:16:32.442Z,84.44
2022-11-03T20:18:59.013Z,84.71
2022-11-03T20:21:31.501Z,84.96
2022-11-03T20:24:01.170Z,84.80
2022-11-03T20:26:28.519Z,84.86
2022-11-03T20:28:56.648Z,84.82
2022-11-03T20:31:23.187Z,85.13
2022-11-03T20:33:49.719Z,85.07
2022-11-03T20:36:19.089Z,84.80
2022-11-03T20:38:59.144Z,84.99
2022-11-03T20:41:30.007Z,85.19
2022-11-03T20:43:57.516Z,85.06
2022-11-03T20:46:29.424Z,85.02
2022-11-03T20:48:56.492Z,84.81
2022-11-03T20:51:31.505Z,84.83
2022-11-03T20:53:59.366Z,84.47
2022-11-03T20:56:28.252Z,84.29
2022-11-03T20:58:55.999Z,84.79
2022-11-03T21:01:33.657Z,84.58
2022-11-03T21:04:02.077Z,84.66
2022-11-03T21:06:31.470Z,84.82
2022-11-03T21:08:58.843Z,84.79
2022-11-03T21:11:28.991Z,84.59
2022-11-03T21:14:01.093Z,84.73
2022-11-03T21:16:47.999Z,84.54
2022-11-03T21:19:38.977Z,84.59
2022-11-03T21:22:51.261Z,84.46
2022-11-03T21:25:19.876Z,84.04
2022-11-03T21:27:49.248Z,84.34
2022-11-03T21:30:17.325Z,84.13
2022-11-03T21:32:43.820Z,84.28
2022-11-03T21:35:16.399Z,84.45
2022-11-03T21:37:42.963Z,84.43
2022-11-03T21:40:10.274Z,85.17
2022-11-03T21:42:55.166Z,85.07
2022-11-03T21:45:21.728Z,85.76
2022-11-03T21:48:13.051Z,85.78
2022-11-03T21:50:40.323Z,85.88
2022-11-03T21:53:07.299Z,85.93
2022-11-03T21:55:34.264Z,85.71
2022-11-03T21:58:02.259Z,85.65
2022-11-03T22:00:28.906Z,85.92
2022-11-03T22:02:55.837Z,85.64
2022-11-03T22:05:22.714Z,85.91
2022-11-03T22:07:49.236Z,85.51
2022-11-03T22:10:15.795Z,85.53
2022-11-03T22:12:42.302Z,85.75
2022-11-03T22:15:28.035Z,85.67
2022-11-03T22:18:05.022Z,86.03
2022-11-03T22:20:50.621Z,86.06
2022-11-03T22:23:35.967Z,85.49
2022-11-03T22:26:20.890Z,84.18
2022-11-03T22:29:07.381Z,83.69
2022-11-03T22:31:43.169Z,83.89
2022-11-03T22:34:28.290Z,83.87
2022-11-03T22:36:54.804Z,84.32
2022-11-03T22:39:40.072Z,84.39
2022-11-03T22:42:24.966Z,84.04
2022-11-03T22:45:09.705Z,84.48
2022-11-03T22:47:36.292Z,84.33
2022-11-03T22:50:02.877Z,84.48
2022-11-03T22:52:29.420Z,84.66
2022-11-03T22:54:55.896Z,84.68
2022-11-03T22:57:22.406Z,84.76
2022-11-03T22:59:48.921Z,84.98
2022-11-03T23:02:15.498Z,84.88
2022-11-03T23:04:42.070Z,84.71
2022-11-03T23:07:08.605Z,84.41
2022-11-03T23:09:35.247Z,84.88
2022-11-03T23:12:01.745Z,84.86
2022-11-03T23:14:48.205Z,84.97
2022-11-03T23:17:14.725Z,85.07
2022-11-03T23:19:59.828Z,85.62
2022-11-03T23:22:26.328Z,85.75
2022-11-03T23:25:01.653Z,85.20
2022-11-03T23:27:28.628Z,85.09
2022-11-03T23:29:55.173Z,84.61
2022-11-03T23:32:21.709Z,84.65
2022-11-03T23:34:48.266Z,84.25
2022-11-03T23:37:14.779Z,84.16
2022-11-03T23:39:41.255Z,84.58
2022-11-03T23:42:07.768Z,84.57
2022-11-03T23:44:54.255Z,84.57
2022-11-03T23:47:39.055Z,83.79
2022-11-03T23:50:05.944Z,83.65
2022-11-03T23:52:32.460Z,83.74
2022-11-03T23:54:58.949Z,83.93
2022-11-03T23:57:43.955Z,83.54
